createdAt,value
2022-10-19T00:02:49.051Z,11.40
2022-10-19T00:05:51.214Z,11.67
2022-10-19T00:08:55.827Z,11.48
2022-10-19T00:11:58.038Z,11.27
2022-10-19T00:15:00.234Z,11.23
2022-10-19T00:18:02.382Z,11.60
2022-10-19T00:21:06.618Z,11.60
2022-10-19T00:24:09.290Z,11.32
2022-10-19T00:27:11.509Z,11.55
2022-10-19T00:30:13.735Z,11.45
2022-10-19T00:33:21.221Z,11.15
2022-10-19T00:36:32.166Z,12.10
2022-10-19T00:39:34.382Z,11.75
2022-10-19T00:42:39.593Z,11.98
2022-10-19T00:45:41.978Z,12.50
2022-10-19T00:48:44.392Z,11.88
2022-10-19T00:51:53.658Z,12.13
2022-10-19T00:54:57.883Z,11.55
2022-10-19T00:58:02.692Z,11.68
2022-10-19T01:01:06.236Z,12.07
2022-10-19T01:04:09.462Z,11.70
2022-10-19T01:07:12.675Z,11.73
2022-10-19T01:10:14.960Z,11.70
2022-10-19T01:13:36.400Z,11.93
2022-10-19T01:16:51.017Z,12.07
2022-10-19T01:20:11.187Z,11.40
2022-10-19T01:23:34.424Z,11.80
2022-10-19T01:26:58.141Z,11.73
2022-10-19T01:30:07.800Z,11.38
2022-10-19T01:33:35.158Z,12.38
2022-10-19T01:36:42.787Z,12.18
2022-10-19T01:40:03.757Z,11.63
2022-10-19T01:43:17.842Z,11.48
2022-10-19T01:46:27.260Z,11.57
2022-10-19T01:49:35.513Z,12.40
2022-10-19T01:52:40.883Z,12.20
2022-10-19T01:55:45.120Z,11.77
2022-10-19T01:58:48.522Z,12.32
2022-10-19T02:01:52.563Z,12.40
2022-10-19T02:04:57.658Z,11.65
2022-10-19T02:08:05.910Z,11.70
2022-10-19T02:11:08.249Z,11.97
2022-10-19T02:14:15.274Z,11.85
2022-10-19T02:17:24.028Z,12.02
2022-10-19T02:20:28.369Z,11.77
2022-10-19T02:23:30.652Z,12.30
2022-10-19T02:26:33.356Z,11.87
2022-10-19T02:29:37.836Z,12.05
2022-10-19T02:32:40.726Z,11.93
2022-10-19T02:35:43.287Z,12.20
2022-10-19T02:38:45.521Z,12.10
2022-10-19T02:42:15.283Z,11.63
2022-10-19T02:45:28.318Z,12.43
2022-10-19T02:48:33.608Z,12.90
2022-10-19T02:51:41.269Z,12.73
2022-10-19T02:54:44.860Z,13.00
2022-10-19T02:57:46.996Z,13.03
2022-10-19T03:00:49.247Z,12.57
2022-10-19T03:03:51.445Z,12.27
2022-10-19T03:06:53.616Z,12.57
2022-10-19T03:09:55.821Z,12.73
2022-10-19T03:12:58.636Z,12.73
2022-10-19T03:16:11.500Z,12.00
2022-10-19T03:19:13.805Z,11.32
2022-10-19T03:22:16.085Z,12.27
2022-10-19T03:25:18.360Z,11.77
2022-10-19T03:28:20.498Z,10.97
2022-10-19T03:31:22.847Z,10.77
2022-10-19T03:34:25.109Z,11.43
2022-10-19T03:37:27.266Z,10.98
2022-10-19T03:40:29.433Z,11.25
2022-10-19T03:43:31.572Z,11.07
2022-10-19T03:46:34.549Z,10.25
2022-10-19T03:49:39.511Z,10.98
2022-10-19T03:52:43.301Z,11.00
2022-10-19T03:55:45.463Z,11.02
2022-10-19T03:58:48.908Z,10.83
2022-10-19T04:01:51.159Z,10.25
2022-10-19T04:04:53.336Z,10.43
2022-10-19T04:07:55.468Z,10.48
2022-10-19T04:11:06.253Z,10.77
2022-10-19T04:17:11.908Z,10.63
2022-10-19T04:20:14.069Z,10.05
2022-10-19T04:26:20.242Z,10.20
2022-10-19T04:29:29.388Z,9.83
2022-10-19T04:32:32.924Z,10.38
2022-10-19T04:35:35.106Z,10.60
2022-10-19T04:38:37.641Z,10.38
2022-10-19T04:41:39.823Z,10.13
2022-10-19T04:44:41.985Z,10.30
2022-10-19T04:47:44.147Z,10.02
2022-10-19T04:50:46.419Z,9.30
2022-10-19T04:53:59.531Z,9.50
2022-10-19T04:57:02.122Z,9.98
2022-10-19T05:00:07.878Z,9.53
2022-10-19T05:03:10.204Z,9.85
2022-10-19T05:06:13.224Z,9.13
2022-10-19T05:09:15.387Z,9.40
2022-10-19T05:12:17.546Z,9.23
2022-10-19T05:15:19.770Z,9.47
2022-10-19T05:18:21.922Z,9.20
2022-10-19T05:21:25.134Z,9.95
2022-10-19T05:24:27.342Z,9.52
2022-10-19T05:27:29.519Z,9.35
2022-10-19T05:30:32.512Z,9.03
2022-10-19T05:33:35.404Z,8.63
2022-10-19T05:36:39.937Z,8.93
2022-10-19T05:39:42.182Z,9.20
2022-10-19T05:42:44.328Z,9.25
2022-10-19T05:45:46.479Z,9.00
2022-10-19T05:48:48.892Z,8.82
2022-10-19T05:51:51.263Z,9.40
2022-10-19T05:54:54.039Z,8.98
2022-10-19T05:57:56.293Z,9.15
2022-10-19T06:00:59.906Z,9.60
2022-10-19T06:04:03.283Z,9.00
2022-10-19T06:07:05.804Z,8.57
2022-10-19T06:10:10.215Z,8.27
2022-10-19T06:13:18.652Z,8.70
2022-10-19T06:16:28.264Z,10.67
2022-10-19T06:19:30.405Z,9.77
2022-10-19T06:22:32.653Z,8.50
2022-10-19T06:25:35.606Z,8.50
2022-10-19T06:28:39.339Z,9.07
2022-10-19T06:31:41.562Z,8.57
2022-10-19T06:34:43.754Z,8.70
2022-10-19T06:37:46.287Z,8.50
2022-10-19T06:40:49.214Z,8.48
2022-10-19T06:43:53.428Z,8.65
2022-10-19T06:46:57.035Z,8.43
2022-10-19T06:50:00.681Z,8.95
2022-10-19T06:53:02.861Z,8.63
2022-10-19T06:56:06.480Z,8.40
2022-10-19T06:59:08.721Z,8.80
2022-10-19T07:02:12.646Z,8.43
2022-10-19T07:05:14.944Z,8.68
2022-10-19T07:08:17.767Z,8.80
2022-10-19T07:11:22.466Z,8.60
2022-10-19T07:14:24.848Z,8.15
2022-10-19T07:17:27.026Z,8.70
2022-10-19T07:20:29.321Z,8.30
2022-10-19T07:23:33.646Z,7.75
2022-10-19T07:26:36.040Z,8.63
2022-10-19T07:29:38.189Z,7.93
2022-10-19T07:32:45.935Z,7.77
2022-10-19T07:35:49.456Z,8.50
2022-10-19T07:38:51.789Z,7.80
2022-10-19T07:41:56.193Z,7.70
2022-10-19T07:44:58.395Z,8.30
2022-10-19T07:48:00.600Z,7.77
2022-10-19T07:51:08.303Z,7.72
2022-10-19T07:54:10.616Z,7.25
2022-10-19T07:57:14.759Z,7.30
2022-10-19T08:00:20.592Z,7.25
2022-10-19T08:06:48.759Z,7.13
2022-10-19T08:09:53.822Z,7.55
2022-10-19T08:12:56.424Z,6.95
2022-10-19T08:15:58.568Z,6.85
2022-10-19T08:19:09.853Z,7.37
2022-10-19T08:22:12.185Z,7.10
2022-10-19T08:25:14.488Z,7.00
2022-10-19T08:28:16.656Z,6.53
2022-10-19T08:31:21.251Z,6.90
2022-10-19T08:34:23.497Z,6.03
2022-10-19T08:37:40.802Z,5.97
2022-10-19T08:40:47.388Z,5.65
2022-10-19T08:44:21.498Z,6.15
2022-10-19T08:47:32.594Z,5.90
2022-10-19T08:50:40.951Z,5.60
2022-10-19T08:53:43.133Z,5.30
2022-10-19T08:57:18.678Z,5.20
2022-10-19T09:00:20.899Z,5.30
2022-10-19T09:03:43.859Z,5.43
2022-10-19T09:06:57.404Z,4.90
2022-10-19T09:10:04.311Z,5.00
2022-10-19T09:13:18.298Z,4.80
2022-10-19T09:16:21.356Z,4.25
2022-10-19T09:19:29.292Z,4.35
2022-10-19T09:22:35.801Z,4.10
2022-10-19T09:25:39.348Z,4.65
2022-10-19T09:29:00.209Z,4.50
2022-10-19T09:32:05.762Z,4.15
2022-10-19T09:35:19.986Z,3.70
2022-10-19T09:38:25.561Z,3.90
2022-10-19T09:41:28.625Z,3.90
2022-10-19T09:44:31.187Z,3.83
2022-10-19T09:47:36.753Z,4.20
2022-10-19T09:50:44.090Z,3.67
2022-10-19T09:53:55.958Z,3.80
2022-10-19T09:56:58.316Z,3.70
2022-10-19T10:00:00.539Z,3.70
2022-10-19T10:03:03.153Z,3.83
2022-10-19T10:06:12.501Z,3.72
2022-10-19T10:09:27.825Z,3.50
2022-10-19T10:12:30.139Z,3.72
2022-10-19T10:15:43.612Z,4.20
2022-10-19T10:18:57.861Z,3.50
2022-10-19T10:22:00.501Z,3.60
2022-10-19T10:25:13.616Z,3.30
2022-10-19T10:28:23.650Z,3.72
2022-10-19T10:31:29.723Z,3.33
2022-10-19T10:34:46.024Z,3.05
2022-10-19T10:37:52.523Z,3.00
2022-10-19T10:40:59.953Z,2.60
2022-10-19T10:44:08.378Z,2.58
2022-10-19T10:47:16.777Z,2.28
2022-10-19T10:50:31.935Z,2.20
2022-10-19T10:53:40.017Z,2.30
2022-10-19T10:56:43.993Z,2.27
2022-10-19T10:59:56.997Z,2.40
2022-10-19T11:03:10.836Z,1.70
2022-10-19T11:06:14.569Z,1.70
2022-10-19T11:09:32.587Z,2.03
2022-10-19T11:12:41.521Z,1.70
2022-10-19T11:15:52.695Z,2.10
2022-10-19T11:19:05.758Z,2.10
2022-10-19T11:22:07.971Z,1.52
2022-10-19T11:25:29.145Z,1.60
2022-10-19T11:28:41.608Z,2.00
2022-10-19T11:31:53.486Z,1.85
2022-10-19T11:35:11.864Z,1.45
2022-10-19T11:38:38.151Z,1.55
2022-10-19T11:42:05.730Z,1.60
2022-10-19T11:45:25.898Z,1.57
2022-10-19T11:48:52.882Z,1.58
2022-10-19T11:52:20.754Z,1.38
2022-10-19T11:56:01.240Z,1.20
2022-10-19T11:59:07.683Z,1.40
2022-10-19T12:02:21.856Z,1.17
2022-10-19T12:05:32.774Z,2.00
2022-10-19T12:08:57.634Z,1.75
2022-10-19T12:12:37.105Z,1.80
2022-10-19T12:15:55.545Z,1.30
2022-10-19T12:19:03.026Z,1.70
2022-10-19T12:22:11.171Z,1.60
2022-10-19T12:25:16.309Z,1.67
2022-10-19T12:28:31.718Z,1.60
2022-10-19T12:31:36.775Z,1.58
2022-10-19T12:35:09.728Z,1.70
2022-10-19T12:38:48.026Z,1.40
2022-10-19T12:41:58.907Z,1.25
2022-10-19T12:45:14.911Z,1.50
2022-10-19T12:48:20.335Z,1.23
2022-10-19T12:51:22.513Z,1.30
2022-10-19T12:54:33.344Z,1.50
2022-10-19T12:57:36.441Z,1.40
2022-10-19T13:00:39.516Z,1.40
2022-10-19T13:03:44.838Z,1.38
2022-10-19T13:06:50.167Z,1.40
2022-10-19T13:10:03.463Z,1.60
2022-10-19T13:13:05.746Z,1.50
2022-10-19T13:17:02.325Z,2.10
2022-10-19T13:20:14.045Z,1.70
2022-10-19T13:23:17.323Z,1.47
2022-10-19T13:26:34.027Z,1.60
2022-10-19T13:29:39.284Z,2.10
2022-10-19T13:32:45.214Z,3.05
2022-10-19T13:35:47.463Z,2.72
2022-10-19T13:38:58.711Z,2.23
2022-10-19T13:42:00.954Z,2.10
2022-10-19T13:45:03.261Z,1.70
2022-10-19T13:48:24.365Z,1.60
2022-10-19T13:51:51.151Z,1.52
2022-10-19T13:55:14.870Z,2.03
2022-10-19T13:58:53.547Z,1.63
2022-10-19T14:02:01.786Z,1.70
2022-10-19T14:05:42.855Z,1.60
2022-10-19T14:09:26.643Z,2.17
2022-10-19T14:12:40.394Z,1.80
2022-10-19T14:15:52.445Z,2.50
2022-10-19T14:18:56.304Z,2.20
2022-10-19T14:22:01.183Z,2.08
2022-10-19T14:25:18.349Z,2.10
2022-10-19T14:28:22.196Z,2.60
2022-10-19T14:31:31.070Z,2.45
2022-10-19T14:34:33.257Z,2.40
2022-10-19T14:37:36.831Z,2.28
2022-10-19T14:40:41.549Z,2.58
2022-10-19T14:43:43.714Z,2.60
2022-10-19T14:46:47.981Z,2.67
2022-10-19T14:49:50.914Z,2.60
2022-10-19T14:53:00.896Z,2.40
2022-10-19T14:56:14.690Z,2.50
2022-10-19T14:59:31.816Z,2.63
2022-10-19T15:02:39.459Z,2.60
2022-10-19T15:05:48.224Z,2.25
2022-10-19T15:08:57.158Z,2.72
2022-10-19T15:12:14.379Z,2.50
2022-10-19T15:15:20.141Z,2.13
2022-10-19T15:18:47.697Z,2.50
2022-10-19T15:22:26.755Z,2.20
2022-10-19T15:25:36.918Z,2.47
2022-10-19T15:28:41.652Z,2.30
2022-10-19T15:31:44.089Z,2.30
2022-10-19T15:34:46.513Z,2.20
2022-10-19T15:37:50.284Z,2.38
2022-10-19T15:41:28.678Z,2.42
2022-10-19T15:44:49.348Z,2.22
2022-10-19T15:48:09.855Z,2.27
2022-10-19T15:51:27.305Z,2.45
2022-10-19T15:54:29.436Z,2.28
2022-10-19T15:57:34.690Z,2.38
2022-10-19T16:00:37.805Z,2.30
2022-10-19T16:03:39.992Z,2.20
2022-10-19T16:06:44.591Z,2.17
2022-10-19T16:09:46.781Z,2.30
2022-10-19T16:12:49.189Z,2.58
2022-10-19T16:16:01.439Z,2.30
2022-10-19T16:19:13.258Z,1.97
2022-10-19T16:22:16.456Z,2.30
2022-10-19T16:25:19.063Z,2.10
2022-10-19T16:28:21.264Z,2.25
2022-10-19T16:31:24.455Z,2.10
2022-10-19T16:34:26.968Z,2.00
2022-10-19T16:37:29.210Z,2.50
2022-10-19T16:40:32.431Z,2.58
2022-10-19T16:43:35.700Z,2.28
2022-10-19T16:46:37.989Z,2.45
2022-10-19T16:49:40.224Z,2.30
2022-10-19T16:52:42.421Z,2.55
2022-10-19T16:55:44.700Z,2.42
2022-10-19T16:58:47.121Z,2.72
2022-10-19T17:01:49.346Z,2.70
2022-10-19T17:04:51.688Z,2.43
2022-10-19T17:07:53.993Z,2.40
2022-10-19T17:10:56.265Z,2.30
2022-10-19T17:14:01.739Z,2.20
2022-10-19T17:17:03.988Z,2.40
2022-10-19T17:20:06.797Z,2.20
2022-10-19T17:23:09.447Z,2.20
2022-10-19T17:26:12.725Z,2.30
2022-10-19T17:29:15.050Z,2.15
2022-10-19T17:32:17.347Z,2.38
2022-10-19T17:35:19.526Z,2.23
2022-10-19T17:38:21.683Z,2.30
2022-10-19T17:41:24.088Z,2.72
2022-10-19T17:44:26.293Z,2.47
2022-10-19T17:47:28.457Z,2.65
2022-10-19T17:50:30.639Z,2.90
2022-10-19T17:53:33.496Z,2.60
2022-10-19T17:56:36.797Z,2.78
2022-10-19T17:59:52.002Z,2.70
2022-10-19T18:02:55.291Z,2.95
2022-10-19T18:06:09.717Z,3.20
2022-10-19T18:09:13.765Z,2.80
2022-10-19T18:12:15.991Z,2.63
2022-10-19T18:15:18.186Z,2.90
2022-10-19T18:18:22.983Z,3.10
2022-10-19T18:21:38.554Z,2.70
2022-10-19T18:24:40.693Z,2.80
2022-10-19T18:27:42.864Z,2.80
2022-10-19T18:30:45.435Z,2.70
2022-10-19T18:33:49.043Z,2.60
2022-10-19T18:36:51.970Z,2.87
2022-10-19T18:39:54.122Z,2.70
2022-10-19T18:42:56.296Z,2.80
2022-10-19T18:46:00.227Z,2.78
2022-10-19T18:49:04.798Z,2.60
2022-10-19T18:52:07.045Z,2.47
2022-10-19T18:55:09.922Z,2.78
2022-10-19T18:58:12.554Z,2.40
2022-10-19T19:01:17.591Z,2.40
2022-10-19T19:04:19.782Z,2.33
2022-10-19T19:07:21.949Z,2.40
2022-10-19T19:10:24.404Z,2.40
2022-10-19T19:13:27.804Z,2.40
2022-10-19T19:16:33.521Z,2.20
2022-10-19T19:19:35.746Z,2.47
2022-10-19T19:22:38.207Z,2.63
2022-10-19T19:25:40.722Z,2.80
2022-10-19T19:28:46.304Z,2.28
2022-10-19T19:31:53.520Z,3.17
2022-10-19T19:34:55.713Z,2.75
2022-10-19T19:37:57.846Z,2.93
2022-10-19T19:41:03.002Z,3.10
2022-10-19T19:44:05.230Z,3.00
2022-10-19T19:47:08.404Z,3.05
2022-10-19T19:50:10.573Z,3.03
2022-10-19T19:53:12.728Z,3.20
2022-10-19T19:56:16.428Z,3.05
2022-10-19T19:59:18.746Z,3.38
2022-10-19T20:02:21.264Z,3.40
2022-10-19T20:05:25.015Z,3.05
2022-10-19T20:08:27.515Z,2.67
2022-10-19T20:11:30.303Z,2.97
2022-10-19T20:14:32.453Z,2.83
2022-10-19T20:17:34.941Z,2.95
2022-10-19T20:20:37.327Z,2.80
2022-10-19T20:23:39.599Z,2.87
2022-10-19T20:26:41.779Z,3.25
2022-10-19T20:29:43.970Z,2.97
2022-10-19T20:32:46.122Z,2.60
2022-10-19T20:35:48.281Z,2.63
2022-10-19T20:38:55.780Z,2.93
2022-10-19T20:41:57.965Z,2.38
2022-10-19T20:45:00.129Z,2.60
2022-10-19T20:48:02.308Z,3.72
2022-10-19T20:51:09.831Z,3.50
2022-10-19T20:54:12.339Z,3.90
2022-10-19T20:57:14.513Z,3.60
2022-10-19T21:00:16.799Z,4.15
2022-10-19T21:03:19.753Z,4.03
2022-10-19T21:06:23.978Z,4.40
2022-10-19T21:09:26.172Z,3.90
2022-10-19T21:12:28.443Z,3.97
2022-10-19T21:15:30.597Z,3.42
2022-10-19T21:18:32.931Z,3.85
2022-10-19T21:21:38.348Z,3.80
2022-10-19T21:24:40.603Z,3.50
2022-10-19T21:27:42.673Z,3.28
2022-10-19T21:30:44.631Z,3.40
2022-10-19T21:33:47.210Z,3.50
2022-10-19T21:36:49.836Z,2.85
2022-10-19T21:39:52.042Z,3.40
2022-10-19T21:42:54.218Z,2.78
2022-10-19T21:45:56.731Z,2.95
2022-10-19T21:48:58.978Z,2.83
2022-10-19T21:52:01.125Z,3.10
2022-10-19T21:55:03.435Z,2.90
2022-10-19T21:58:05.630Z,2.88
2022-10-19T22:01:08.405Z,2.83
2022-10-19T22:04:17.567Z,2.70
2022-10-19T22:07:19.781Z,2.55
2022-10-19T22:10:22.177Z,3.03
2022-10-19T22:13:24.396Z,3.00
2022-10-19T22:16:27.999Z,2.85
2022-10-19T22:19:30.128Z,2.60
2022-10-19T22:22:32.516Z,2.58
2022-10-19T22:25:35.549Z,2.50
2022-10-19T22:28:37.714Z,2.47
2022-10-19T22:31:40.011Z,2.30
2022-10-19T22:34:42.195Z,2.50
2022-10-19T22:37:44.351Z,2.72
2022-10-19T22:40:46.485Z,2.50
2022-10-19T22:43:48.661Z,2.22
2022-10-19T22:46:50.842Z,2.17
2022-10-19T22:49:52.970Z,2.35
2022-10-19T22:52:55.113Z,2.30
2022-10-19T22:55:57.293Z,2.20
2022-10-19T22:59:00.709Z,2.10
2022-10-19T23:02:02.960Z,2.45
2022-10-19T23:05:05.604Z,2.10
2022-10-19T23:08:07.825Z,2.40
2022-10-19T23:11:10.110Z,2.13
2022-10-19T23:14:12.278Z,2.13
2022-10-19T23:17:14.446Z,2.22
2022-10-19T23:20:16.674Z,2.33
2022-10-19T23:23:18.811Z,2.40
2022-10-19T23:26:21.735Z,2.10
2022-10-19T23:29:26.700Z,2.25
2022-10-19T23:32:28.866Z,2.47
2022-10-19T23:35:31.087Z,2.20
2022-10-19T23:38:33.657Z,2.10
2022-10-19T23:41:36.597Z,2.40
2022-10-19T23:44:38.744Z,2.40
2022-10-19T23:47:40.943Z,2.22
2022-10-19T23:50:43.117Z,2.20
2022-10-19T23:53:47.057Z,2.22
2022-10-19T23:56:49.725Z,2.10
2022-10-19T23:59:51.888Z,2.20
